Time;durP1;ratioP1;P1;durP2;ratioP2;P2;SDS_P1;SDS_P2;PMS_P1;PMS_P2;Temp;Humidity;BMP_temperature;BMP_pressure;BME280_temperature;BME280_humidity;BME280_pressure;Samples;Min_cycle;Max_cycle;Signal;HPM_P1;HPM_P2
2021/12/15 00:01:21;;;;;;;66.72;26.42;;;9.70;99.90;;;;;;5017219;28;20405;-74
2021/12/15 00:03:47;;;;;;;76.57;29.35;;;9.70;99.90;;;;;;5037983;28;20056;-74
2021/12/15 00:06:17;;;;;;;70.65;28.60;;;9.70;99.90;;;;;;5050236;28;20045;-72
2021/12/15 00:08:45;;;;;;;71.65;28.02;;;9.70;99.90;;;;;;5035025;28;20049;-74
2021/12/15 00:11:12;;;;;;;69.95;28.52;;;9.70;99.90;;;;;;5070464;28;20060;-73
2021/12/15 00:13:39;;;;;;;75.95;27.88;;;9.70;99.90;;;;;;5034321;28;20057;-74
2021/12/15 00:16:09;;;;;;;74.40;27.15;;;9.70;99.90;;;;;;5038526;28;20553;-73
2021/12/15 00:18:36;;;;;;;68.78;28.70;;;9.70;99.90;;;;;;5050116;28;20594;-72
2021/12/15 00:21:03;;;;;;;60.95;25.63;;;9.70;99.90;;;;;;5035800;28;20650;-72
2021/12/15 00:23:30;;;;;;;66.15;28.10;;;9.70;99.90;;;;;;5035327;28;20111;-73
2021/12/15 00:25:56;;;;;;;74.55;27.30;;;9.70;99.90;;;;;;5034152;28;20132;-73
2021/12/15 00:28:21;;;;;;;66.38;26.90;;;9.70;99.90;;;;;;5037004;28;20076;-73
2021/12/15 00:30:47;;;;;;;76.28;29.42;;;9.70;99.90;;;;;;5034407;28;20093;-73
2021/12/15 00:33:13;;;;;;;66.68;26.80;;;9.70;99.90;;;;;;5037170;28;20057;-72
2021/12/15 00:35:42;;;;;;;69.82;28.77;;;9.70;99.90;;;;;;5017458;28;20100;-73
2021/12/15 00:38:08;;;;;;;73.63;28.95;;;9.70;99.90;;;;;;5036028;28;20050;-73
2021/12/15 00:40:35;;;;;;;69.78;29.90;;;9.80;99.90;;;;;;5035042;28;20049;-73
2021/12/15 00:43:02;;;;;;;68.43;27.80;;;9.80;99.90;;;;;;5067638;28;20045;-73
2021/12/15 00:45:28;;;;;;;69.35;28.80;;;9.70;99.90;;;;;;5039639;28;20056;-74
2021/12/15 00:47:55;;;;;;;69.25;26.95;;;9.70;99.90;;;;;;5037242;28;20061;-74
2021/12/15 00:50:23;;;;;;;71.90;28.75;;;9.70;99.90;;;;;;5040528;28;20048;-74
2021/12/15 00:52:49;;;;;;;64.80;26.45;;;9.70;99.90;;;;;;5037595;28;20052;-74
2021/12/15 00:55:19;;;;;;;75.40;26.10;;;9.70;99.90;;;;;;5040565;28;20132;-75
2021/12/15 00:57:45;;;;;;;70.50;26.30;;;9.80;99.90;;;;;;5072824;28;20045;-74
2021/12/15 01:00:17;;;;;;;77.05;27.42;;;9.80;99.90;;;;;;5071662;28;20050;-73
2021/12/15 01:02:43;;;;;;;71.78;29.05;;;9.80;99.90;;;;;;5073952;28;20056;-74
2021/12/15 01:05:10;;;;;;;69.80;26.08;;;9.80;99.90;;;;;;5037598;28;20116;-74
2021/12/15 01:07:36;;;;;;;69.57;27.67;;;9.80;99.90;;;;;;5039112;28;20105;-73
2021/12/15 01:10:03;;;;;;;66.47;27.25;;;9.70;99.90;;;;;;5036636;28;20061;-73
2021/12/15 01:14:30;;;;;;;63.95;25.20;;;9.70;99.90;;;;;;5022575;28;20037;-74
2021/12/15 01:21:15;;;;;;;72.88;27.75;;;9.70;99.90;;;;;;5038537;28;20049;-75
2021/12/15 01:23:41;;;;;;;77.60;29.48;;;9.80;99.90;;;;;;5039371;28;20060;-73
2021/12/15 01:26:11;;;;;;;59.63;23.35;;;9.80;99.90;;;;;;5070388;28;20050;-73
2021/12/15 01:28:37;;;;;;;68.90;26.17;;;9.80;99.90;;;;;;5073098;28;20466;-73
2021/12/15 01:31:07;;;;;;;72.35;27.90;;;9.80;99.90;;;;;;5069814;28;20066;-73
2021/12/15 01:33:34;;;;;;;71.97;25.88;;;9.80;99.90;;;;;;5023565;28;20144;-75
2021/12/15 01:36:02;;;;;;;72.22;27.17;;;9.80;99.90;;;;;;5037094;28;20088;-73
2021/12/15 01:38:31;;;;;;;63.75;25.75;;;9.70;99.90;;;;;;5072031;28;20080;-74
2021/12/15 01:41:00;;;;;;;64.97;25.55;;;9.70;99.90;;;;;;5040834;28;20068;-75
2021/12/15 01:46:53;;;;;;;62.65;23.80;;;9.70;99.90;;;;;;5036604;28;20080;-74
2021/12/15 01:49:13;;;;;;;;;;;9.80;99.90;;;;;;5038658;28;20128;-73
2021/12/15 01:51:39;;;;;;;66.55;24.67;;;9.70;99.90;;;;;;5036760;28;19971;-73
2021/12/15 01:54:05;;;;;;;68.32;24.17;;;9.70;99.90;;;;;;5038180;28;20053;-72
2021/12/15 01:56:32;;;;;;;67.80;24.33;;;9.70;99.90;;;;;;5068167;28;20169;-73
2021/12/15 01:58:58;;;;;;;68.00;25.73;;;9.70;99.90;;;;;;5071261;28;20103;-73
2021/12/15 02:01:25;;;;;;;63.35;24.25;;;9.80;99.90;;;;;;5035977;28;20049;-73
2021/12/15 02:03:52;;;;;;;63.00;23.90;;;9.70;99.90;;;;;;5072242;28;20056;-73
2021/12/15 02:06:18;;;;;;;70.78;26.65;;;9.70;99.90;;;;;;5070797;28;20089;-74
2021/12/15 02:08:45;;;;;;;66.95;24.70;;;9.70;99.90;;;;;;5037059;28;20473;-73
2021/12/15 02:11:14;;;;;;;71.32;27.42;;;9.70;99.90;;;;;;5055656;28;20488;-73
2021/12/15 02:13:39;;;;;;;65.38;24.92;;;9.70;99.90;;;;;;5052352;28;20045;-74
2021/12/15 02:16:07;;;;;;;62.50;23.88;;;9.70;99.90;;;;;;5022566;28;20053;-74
2021/12/15 02:18:37;;;;;;;68.45;23.40;;;9.70;99.90;;;;;;5052571;28;20160;-74
2021/12/15 02:21:29;;;;;;;59.15;21.23;;;9.70;99.90;;;;;;5071697;28;20053;-73
2021/12/15 02:23:58;;;;;;;72.97;25.55;;;9.70;99.90;;;;;;5038082;28;20088;-73
2021/12/15 02:26:35;;;;;;;62.80;22.00;;;9.70;99.90;;;;;;5068784;28;20058;-74
2021/12/15 02:29:03;;;;;;;65.15;23.13;;;9.70;99.90;;;;;;5072228;28;20054;-74
2021/12/15 02:34:19;;;;;;;64.03;24.00;;;9.70;99.90;;;;;;5038074;28;20105;-75
2021/12/15 02:37:18;;;;;;;58.13;21.48;;;9.70;99.90;;;;;;5071026;28;20049;-74
2021/12/15 02:40:01;;;;;;;53.85;20.52;;;9.60;99.90;;;;;;5035214;28;20045;-73
2021/12/15 02:42:37;;;;;;;61.50;21.50;;;9.70;99.90;;;;;;5054681;28;20049;-74
2021/12/15 02:45:06;;;;;;;53.70;21.02;;;9.70;99.90;;;;;;5038142;28;20112;-72
2021/12/15 02:47:32;;;;;;;61.63;23.02;;;9.70;99.90;;;;;;5035887;28;20412;-74
2021/12/15 02:49:59;;;;;;;57.35;21.42;;;9.70;99.90;;;;;;5055385;28;20057;-73
2021/12/15 02:52:26;;;;;;;63.08;21.40;;;9.70;99.90;;;;;;5035413;28;20049;-73
2021/12/15 02:54:52;;;;;;;54.45;19.45;;;9.60;99.90;;;;;;5054815;28;20045;-73
2021/12/15 02:57:18;;;;;;;59.45;23.20;;;9.60;99.90;;;;;;5035764;28;20041;-73
2021/12/15 03:00:16;;;;;;;53.20;20.73;;;9.60;99.90;;;;;;5037213;28;20716;-74
2021/12/15 03:07:44;;;;;;;53.20;20.35;;;9.60;99.90;;;;;;5020243;28;20063;-75
2021/12/15 03:15:42;;;;;;;64.00;22.52;;;9.60;99.90;;;;;;5036345;28;20061;-74
2021/12/15 03:18:11;;;;;;;56.63;22.42;;;9.60;99.90;;;;;;5067152;28;20056;-74
2021/12/15 03:20:48;;;;;;;62.75;22.30;;;9.60;99.90;;;;;;5071508;28;20049;-76
2021/12/15 03:23:30;;;;;;;61.88;23.20;;;9.60;99.90;;;;;;5017577;28;20081;-74
2021/12/15 03:25:57;;;;;;;57.00;22.30;;;9.60;99.90;;;;;;5015523;28;20101;-73
2021/12/15 03:37:20;;;;;;;64.60;23.80;;;9.60;99.90;;;;;;5022888;28;20097;-73
2021/12/15 03:39:45;;;;;;;67.47;25.27;;;9.60;99.90;;;;;;5066957;28;20433;-73
2021/12/15 03:42:16;;;;;;;75.18;25.42;;;9.60;99.90;;;;;;5037813;28;20057;-73
2021/12/15 03:44:43;;;;;;;71.60;24.05;;;9.60;99.90;;;;;;5035877;28;20041;-73
2021/12/15 03:47:14;;;;;;;60.92;23.02;;;9.60;99.90;;;;;;5069115;28;20056;-72
2021/12/15 03:49:40;;;;;;;77.65;26.77;;;9.60;99.90;;;;;;5070685;28;20100;-74
2021/12/15 03:52:07;;;;;;;67.93;24.35;;;9.60;99.90;;;;;;5067787;28;20046;-73
2021/12/15 03:54:34;;;;;;;73.93;26.65;;;9.60;99.90;;;;;;5037205;28;20068;-75
2021/12/15 03:56:59;;;;;;;72.78;26.50;;;9.60;99.90;;;;;;5068106;28;20049;-76
2021/12/15 03:59:27;;;;;;;72.70;25.40;;;9.60;99.90;;;;;;5004623;28;20620;-73
2021/12/15 04:01:54;;;;;;;73.82;27.92;;;9.60;99.90;;;;;;5035875;28;20502;-72
2021/12/15 04:04:20;;;;;;;73.68;26.55;;;9.60;99.90;;;;;;5035886;28;20124;-73
2021/12/15 04:06:46;;;;;;;75.93;24.95;;;9.60;99.90;;;;;;5053397;28;20061;-73
2021/12/15 04:09:14;;;;;;;74.20;25.20;;;9.60;99.90;;;;;;5068084;28;20393;-74
2021/12/15 04:11:41;;;;;;;75.95;26.77;;;9.60;99.90;;;;;;5070710;28;20699;-72
2021/12/15 04:14:23;;;;;;;71.32;24.58;;;9.60;99.90;;;;;;5034443;28;20053;-74
2021/12/15 04:17:03;;;;;;;67.63;25.10;;;9.60;99.90;;;;;;5036580;28;20121;-74
2021/12/15 04:19:31;;;;;;;83.43;29.02;;;9.60;99.90;;;;;;5073201;28;20046;-72
2021/12/15 04:21:57;;;;;;;73.30;25.20;;;9.60;99.90;;;;;;5021853;28;20050;-73
2021/12/15 04:24:26;;;;;;;76.60;26.30;;;9.60;99.90;;;;;;5040829;28;20053;-74
2021/12/15 04:26:54;;;;;;;75.55;26.67;;;9.60;99.90;;;;;;5054288;28;20084;-72
2021/12/15 04:29:20;;;;;;;69.72;26.38;;;9.60;99.90;;;;;;5040482;28;20045;-73
2021/12/15 04:31:59;;;;;;;78.63;27.58;;;9.60;99.90;;;;;;5038422;28;20193;-74
2021/12/15 04:34:25;;;;;;;70.50;26.83;;;9.60;99.90;;;;;;5022326;28;20060;-74
2021/12/15 04:36:52;;;;;;;76.18;28.33;;;9.60;99.90;;;;;;5040227;28;20073;-76
2021/12/15 04:39:24;;;;;;;84.22;27.88;;;9.60;99.90;;;;;;5071016;28;20049;-73
2021/12/15 04:41:52;;;;;;;81.88;28.10;;;9.60;99.90;;;;;;5040852;28;20037;-73
2021/12/15 04:44:20;;;;;;;86.18;28.67;;;9.60;99.90;;;;;;5071244;28;20045;-72
2021/12/15 04:46:57;;;;;;;85.78;30.38;;;9.50;99.90;;;;;;5039995;28;20052;-74
2021/12/15 04:49:23;;;;;;;74.15;25.98;;;9.60;99.90;;;;;;5040532;28;20379;-73
2021/12/15 04:51:49;;;;;;;80.25;30.20;;;9.50;99.90;;;;;;5037827;28;20056;-73
2021/12/15 04:54:17;;;;;;;78.38;29.55;;;9.60;99.90;;;;;;5040546;28;20045;-73
2021/12/15 04:56:42;;;;;;;80.82;28.17;;;9.50;99.90;;;;;;5071130;28;20507;-73
2021/12/15 04:59:09;;;;;;;80.15;28.80;;;9.50;99.90;;;;;;5007721;28;20053;-72
2021/12/15 05:01:35;;;;;;;78.18;28.92;;;9.60;99.90;;;;;;5055007;28;20081;-74
2021/12/15 05:04:00;;;;;;;77.28;28.38;;;9.50;99.90;;;;;;5022919;28;20049;-73
2021/12/15 05:06:26;;;;;;;80.82;29.90;;;9.50;99.90;;;;;;5039033;28;20049;-74
2021/12/15 05:08:52;;;;;;;84.65;29.30;;;9.50;99.90;;;;;;5053968;28;20075;-72
2021/12/15 05:11:18;;;;;;;92.82;30.25;;;9.50;99.90;;;;;;5039987;28;20068;-73
2021/12/15 05:13:44;;;;;;;75.35;30.25;;;9.50;99.90;;;;;;5054156;28;20132;-74
2021/12/15 05:16:10;;;;;;;86.88;31.45;;;9.50;99.90;;;;;;5073270;28;20054;-73
2021/12/15 05:18:36;;;;;;;81.07;30.63;;;9.50;99.90;;;;;;5071332;28;20260;-73
2021/12/15 05:21:04;;;;;;;91.35;32.33;;;9.50;99.90;;;;;;5039463;28;20501;-74
2021/12/15 05:23:32;;;;;;;76.95;28.50;;;9.50;99.90;;;;;;5055994;28;20136;-74
2021/12/15 05:26:00;;;;;;;82.45;29.63;;;9.50;99.90;;;;;;5019949;28;20137;-75
2021/12/15 05:28:27;;;;;;;94.03;31.95;;;9.50;99.90;;;;;;5039308;28;20050;-75
2021/12/15 05:30:53;;;;;;;86.90;30.63;;;9.50;99.90;;;;;;5067760;28;20056;-74
2021/12/15 05:33:19;;;;;;;86.45;31.98;;;9.50;99.90;;;;;;5038949;28;20049;-75
2021/12/15 05:35:45;;;;;;;95.47;34.38;;;9.70;99.90;;;;;;5036583;28;20112;-73
2021/12/15 05:38:12;;;;;;;86.25;32.35;;;9.50;99.90;;;;;;5021900;28;20050;-74
2021/12/15 05:40:38;;;;;;;86.07;30.30;;;9.50;99.90;;;;;;5039014;28;20072;-74
2021/12/15 05:43:05;;;;;;;87.35;32.90;;;9.50;99.90;;;;;;5070218;28;20076;-74
2021/12/15 05:45:35;;;;;;;89.90;33.60;;;9.50;99.90;;;;;;5039196;28;20092;-74
2021/12/15 05:48:02;;;;;;;86.45;31.77;;;9.50;99.90;;;;;;5035861;28;20076;-74
2021/12/15 05:50:30;;;;;;;80.57;31.17;;;9.50;99.90;;;;;;5039665;28;20057;-74
2021/12/15 05:52:57;;;;;;;83.80;32.25;;;9.50;99.90;;;;;;5037106;28;20049;-73
2021/12/15 05:55:23;;;;;;;84.90;30.48;;;9.50;99.90;;;;;;5038738;28;20514;-75
2021/12/15 05:57:49;;;;;;;85.07;32.78;;;9.50;99.90;;;;;;5072340;28;20073;-73
2021/12/15 06:00:18;;;;;;;85.53;33.17;;;9.50;99.90;;;;;;5069644;28;20052;-74
2021/12/15 06:02:45;;;;;;;89.63;34.72;;;9.50;99.90;;;;;;5039187;28;20052;-74
2021/12/15 06:05:11;;;;;;;89.32;33.65;;;9.50;99.90;;;;;;5069753;28;20752;-73
2021/12/15 06:07:38;;;;;;;89.75;32.85;;;9.50;99.90;;;;;;5021941;28;20501;-73
2021/12/15 06:10:08;;;;;;;94.70;34.92;;;9.50;99.90;;;;;;5036651;28;20061;-74
2021/12/15 06:12:34;;;;;;;88.03;33.70;;;9.50;99.90;;;;;;5071743;28;20065;-74
2021/12/15 06:15:00;;;;;;;92.70;33.85;;;9.50;99.90;;;;;;5038720;28;20056;-74
2021/12/15 06:17:26;;;;;;;94.40;35.13;;;9.50;99.90;;;;;;5069659;28;20053;-73
2021/12/15 06:19:56;;;;;;;94.07;34.17;;;9.50;99.90;;;;;;5038830;28;20049;-74
2021/12/15 06:22:28;;;;;;;90.88;33.90;;;9.50;99.90;;;;;;5052325;28;20401;-73
2021/12/15 06:24:55;;;;;;;89.78;36.45;;;9.50;99.90;;;;;;5038415;28;20109;-75
2021/12/15 06:27:25;;;;;;;95.70;35.55;;;9.50;99.90;;;;;;5036664;28;20053;-74
2021/12/15 06:29:52;;;;;;;83.00;31.35;;;9.50;99.90;;;;;;5037548;28;20076;-74
2021/12/15 06:32:20;;;;;;;82.25;30.63;;;9.50;99.90;;;;;;5071928;28;20128;-73
2021/12/15 06:34:45;;;;;;;89.20;34.25;;;9.50;99.90;;;;;;5052750;28;20072;-74
2021/12/15 06:37:12;;;;;;;92.63;34.10;;;9.50;99.90;;;;;;5005365;28;20505;-75
2021/12/15 06:39:38;;;;;;;97.88;34.00;;;9.50;99.90;;;;;;5068569;28;20071;-74
2021/12/15 06:42:05;;;;;;;100.50;36.72;;;9.50;99.90;;;;;;5038340;28;20037;-73
2021/12/15 06:44:31;;;;;;;99.38;35.10;;;9.50;99.90;;;;;;5036734;28;20037;-74
2021/12/15 06:58:11;;;;;;;89.10;32.45;;;9.50;99.90;;;;;;5038023;28;20054;-76
2021/12/15 07:00:42;;;;;;;93.63;31.77;;;9.50;99.90;;;;;;5034902;28;20053;-74
2021/12/15 07:03:08;;;;;;;90.03;32.92;;;9.50;99.90;;;;;;5071060;28;20132;-74
2021/12/15 07:05:34;;;;;;;92.00;33.90;;;9.50;99.90;;;;;;5035165;28;20084;-74
2021/12/15 07:08:03;;;;;;;91.28;33.50;;;9.50;99.90;;;;;;5020701;28;20049;-74
2021/12/15 07:10:32;;;;;;;98.60;36.50;;;9.50;99.90;;;;;;5070271;28;20103;-74
2021/12/15 07:13:00;;;;;;;90.97;34.63;;;9.50;99.90;;;;;;5035809;28;20049;-74
2021/12/15 07:15:27;;;;;;;86.22;31.77;;;9.50;99.90;;;;;;5021777;28;20116;-73
2021/12/15 07:18:00;;;;;;;90.38;32.47;;;9.50;99.90;;;;;;5035029;28;20545;-74
2021/12/15 07:20:40;;;;;;;83.63;32.78;;;9.50;99.90;;;;;;5038024;28;20045;-75
2021/12/15 07:23:12;;;;;;;87.38;31.73;;;9.50;99.90;;;;;;5069608;28;20050;-74
2021/12/15 07:25:41;;;;;;;87.72;35.30;;;9.50;99.90;;;;;;5052956;28;20124;-73
2021/12/15 07:28:07;;;;;;;90.45;34.40;;;9.50;99.90;;;;;;5070962;28;20045;-73
2021/12/15 07:30:35;;;;;;;84.50;31.00;;;9.50;99.90;;;;;;5068228;28;20054;-74
2021/12/15 07:33:01;;;;;;;99.82;34.28;;;9.50;99.90;;;;;;5037267;28;20049;-73
2021/12/15 07:35:27;;;;;;;90.97;34.92;;;9.50;99.90;;;;;;5067348;28;20061;-75
2021/12/15 07:37:53;;;;;;;87.20;32.55;;;9.50;99.90;;;;;;5070403;28;20065;-73
2021/12/15 07:40:21;;;;;;;91.68;34.45;;;9.50;99.90;;;;;;5035609;28;20045;-74
2021/12/15 07:43:09;;;;;;;86.60;32.17;;;9.50;99.90;;;;;;5019551;28;20061;-73
2021/12/15 07:45:42;;;;;;;86.05;31.00;;;9.50;99.90;;;;;;5038866;28;20045;-73
2021/12/15 07:48:10;;;;;;;98.47;34.70;;;9.60;99.90;;;;;;5034420;28;20076;-72
2021/12/15 07:50:37;;;;;;;78.78;31.40;;;9.50;99.90;;;;;;5071198;28;20045;-73
2021/12/15 07:53:04;;;;;;;83.43;32.35;;;9.50;99.90;;;;;;5035933;28;20041;-75
2021/12/15 07:55:30;;;;;;;87.20;32.17;;;9.50;99.90;;;;;;5007577;28;20045;-72
2021/12/15 07:57:56;;;;;;;80.45;29.63;;;9.50;99.90;;;;;;5025672;28;20054;-74
2021/12/15 08:00:23;;;;;;;83.50;31.25;;;9.50;99.90;;;;;;5072750;28;20049;-73
2021/12/15 08:02:50;;;;;;;87.13;31.95;;;9.50;99.90;;;;;;5025078;28;20103;-74
2021/12/15 08:05:16;;;;;;;88.30;34.33;;;9.60;99.90;;;;;;5071752;28;20080;-74
2021/12/15 08:07:42;;;;;;;73.20;28.10;;;9.60;99.90;;;;;;5057420;28;20056;-73
2021/12/15 08:10:11;;;;;;;84.47;29.92;;;9.60;99.90;;;;;;5072165;28;20053;-72
2021/12/15 08:12:38;;;;;;;87.97;30.90;;;9.50;99.90;;;;;;5041777;28;20413;-74
2021/12/15 08:15:07;;;;;;;87.47;33.33;;;9.60;99.90;;;;;;5041129;28;20045;-74
2021/12/15 08:17:35;;;;;;;84.80;30.77;;;9.50;99.90;;;;;;5037611;28;20041;-73
2021/12/15 08:20:02;;;;;;;82.78;31.55;;;9.60;99.90;;;;;;5044841;28;20550;-73
2021/12/15 08:22:27;;;;;;;82.47;32.00;;;9.50;99.90;;;;;;5037170;28;20068;-73
2021/12/15 08:24:54;;;;;;;89.95;33.92;;;9.60;99.90;;;;;;5057495;28;20128;-73
2021/12/15 08:27:20;;;;;;;87.65;31.50;;;9.60;99.90;;;;;;5038010;28;20057;-73
2021/12/15 08:29:46;;;;;;;79.93;32.40;;;9.60;99.90;;;;;;5022767;28;20404;-74
2021/12/15 08:32:12;;;;;;;88.32;32.17;;;9.60;99.90;;;;;;5039438;28;20060;-73
2021/12/15 08:34:37;;;;;;;87.38;31.60;;;9.60;99.90;;;;;;5020929;28;20754;-74
2021/12/15 08:37:05;;;;;;;84.97;31.52;;;9.60;99.90;;;;;;5023232;28;20570;-73
2021/12/15 08:39:31;;;;;;;83.68;31.23;;;9.60;99.90;;;;;;5052033;28;20505;-76
2021/12/15 08:41:57;;;;;;;85.03;32.28;;;9.60;99.90;;;;;;5023234;28;20041;-74
2021/12/15 08:44:23;;;;;;;83.65;30.08;;;9.60;99.90;;;;;;5038519;28;20041;-73
2021/12/15 08:46:49;;;;;;;83.05;29.95;;;9.60;99.90;;;;;;5039600;28;20053;-74
2021/12/15 08:49:18;;;;;;;82.07;29.98;;;9.60;99.90;;;;;;5040103;28;20052;-74
2021/12/15 08:51:45;;;;;;;75.65;30.27;;;9.60;99.90;;;;;;5036973;28;20055;-74
2021/12/15 08:54:15;;;;;;;79.68;29.27;;;9.60;99.90;;;;;;5023789;28;20075;-74
2021/12/15 08:56:43;;;;;;;82.43;31.85;;;9.60;99.90;;;;;;5069755;28;20060;-74
2021/12/15 08:59:09;;;;;;;85.38;30.30;;;9.60;99.90;;;;;;5040185;28;20125;-73
2021/12/15 09:01:35;;;;;;;84.10;31.08;;;9.60;99.90;;;;;;5037379;28;20045;-73
2021/12/15 09:04:01;;;;;;;87.78;31.73;;;9.70;99.90;;;;;;5022179;28;20107;-73
2021/12/15 09:06:28;;;;;;;83.00;31.48;;;9.70;99.90;;;;;;5039347;28;20049;-73
2021/12/15 09:08:54;;;;;;;80.47;28.98;;;9.70;99.90;;;;;;5037368;28;20052;-73
2021/12/15 09:11:23;;;;;;;84.40;29.58;;;9.70;99.90;;;;;;5072580;28;20062;-72
2021/12/15 09:13:52;;;;;;;76.70;27.70;;;9.70;99.90;;;;;;5038305;28;20037;-72
2021/12/15 09:16:18;;;;;;;79.22;29.90;;;9.70;99.90;;;;;;5073260;28;20042;-72
2021/12/15 09:18:46;;;;;;;81.65;29.63;;;9.70;99.90;;;;;;5071290;28;20375;-71
2021/12/15 09:21:14;;;;;;;80.63;29.73;;;9.70;99.90;;;;;;5038343;28;20511;-72
2021/12/15 09:23:40;;;;;;;78.60;27.65;;;9.70;99.90;;;;;;5038915;28;20061;-74
2021/12/15 09:26:07;;;;;;;78.35;28.23;;;9.70;99.90;;;;;;5020500;28;20484;-74
2021/12/15 09:28:34;;;;;;;78.45;30.08;;;9.70;99.90;;;;;;5073169;28;20052;-73
2021/12/15 09:31:02;;;;;;;76.30;27.92;;;9.70;99.90;;;;;;5036232;28;20046;-72
2021/12/15 09:33:33;;;;;;;79.78;30.08;;;9.70;99.90;;;;;;5022163;28;20049;-74
2021/12/15 09:36:02;;;;;;;80.10;29.80;;;9.70;99.90;;;;;;5039104;28;20045;-72
2021/12/15 09:38:27;;;;;;;78.25;29.77;;;9.70;99.90;;;;;;5037549;28;20037;-74
2021/12/15 09:41:00;;;;;;;75.95;28.48;;;9.80;99.90;;;;;;5022241;28;20091;-73
2021/12/15 09:43:28;;;;;;;75.47;27.90;;;9.80;99.90;;;;;;5019603;28;20513;-73
2021/12/15 09:46:38;;;;;;;66.88;27.35;;;9.80;99.90;;;;;;5039304;28;20046;-72
2021/12/15 10:03:21;;;;;;;68.57;27.13;;;10.00;99.90;;;;;;5008126;28;20049;-73
2021/12/15 10:19:28;;;;;;;61.60;26.17;;;10.00;99.90;;;;;;5052834;28;20497;-73
2021/12/15 10:22:29;;;;;;;64.13;25.30;;;10.10;99.90;;;;;;5051483;28;20041;-74
2021/12/15 10:25:00;;;;;;;63.47;24.73;;;10.10;99.90;;;;;;5072689;28;20120;-74
2021/12/15 10:27:36;;;;;;;61.75;25.25;;;10.10;99.90;;;;;;5038203;28;20401;-74
2021/12/15 10:30:14;;;;;;;;;;;10.20;99.90;;;;;;5036664;28;20120;-75
2021/12/15 10:32:42;;;;;;;62.47;22.83;;;10.20;99.90;;;;;;5071349;28;19924;-76
2021/12/15 10:35:13;;;;;;;56.92;23.67;;;10.20;99.90;;;;;;5035315;28;20554;-75
2021/12/15 10:37:40;;;;;;;57.05;21.92;;;10.20;99.90;;;;;;5037802;28;20101;-74
2021/12/15 10:40:15;;;;;;;53.30;24.13;;;10.20;99.90;;;;;;5036118;28;20068;-75
2021/12/15 10:42:42;;;;;;;52.28;20.77;;;10.20;99.90;;;;;;5036112;28;20049;-76
2021/12/15 10:45:11;;;;;;;58.65;22.98;;;10.20;99.90;;;;;;5037852;28;20050;-75
2021/12/15 10:47:49;;;;;;;58.75;22.63;;;10.20;99.90;;;;;;5035003;28;20061;-76
2021/12/15 10:50:23;;;;;;;52.55;22.73;;;10.20;99.90;;;;;;5037196;28;20103;-75
2021/12/15 10:53:00;;;;;;;58.92;22.40;;;10.20;99.90;;;;;;5035210;28;20057;-75
2021/12/15 10:55:35;;;;;;;52.75;23.15;;;10.20;99.90;;;;;;5036674;28;20109;-74
2021/12/15 10:58:21;;;;;;;60.73;25.43;;;10.20;99.90;;;;;;5037783;28;20088;-77
2021/12/15 11:00:47;;;;;;;49.93;19.83;;;10.10;99.90;;;;;;5034101;28;20316;-75
2021/12/15 11:03:16;;;;;;;55.95;23.50;;;10.10;99.90;;;;;;5037571;28;20045;-74
2021/12/15 11:05:42;;;;;;;51.40;22.88;;;10.20;99.90;;;;;;5035229;28;20053;-75
2021/12/15 11:08:08;;;;;;;54.38;21.70;;;10.20;99.90;;;;;;5036650;28;20041;-76
2021/12/15 11:10:37;;;;;;;55.15;22.35;;;10.20;99.90;;;;;;5020824;28;20064;-75
2021/12/15 11:13:14;;;;;;;45.40;19.85;;;10.30;99.90;;;;;;5034063;28;20053;-76
2021/12/15 11:15:44;;;;;;;48.40;20.58;;;10.30;99.90;;;;;;5037778;28;20057;-76
2021/12/15 11:18:20;;;;;;;46.55;20.02;;;10.30;99.90;;;;;;5034690;28;20049;-75
2021/12/15 11:20:56;;;;;;;45.55;20.23;;;10.40;99.90;;;;;;5036957;28;20121;-76
2021/12/15 11:23:24;;;;;;;41.22;17.98;;;10.40;99.90;;;;;;5053596;28;20136;-76
2021/12/15 11:25:54;;;;;;;39.25;17.70;;;10.40;99.90;;;;;;5051549;28;20053;-76
2021/12/15 11:28:30;;;;;;;33.67;16.98;;;10.50;99.90;;;;;;5070235;28;20045;-77
2021/12/15 11:30:55;;;;;;;34.15;16.33;;;9.70;99.90;;;;;;5067959;28;20421;-75
2021/12/15 11:33:29;;;;;;;34.95;16.55;;;10.60;99.90;;;;;;5036828;28;20091;-75
2021/12/15 11:35:58;;;;;;;35.20;15.68;;;10.60;99.90;;;;;;5069275;28;20045;-75
2021/12/15 11:38:34;;;;;;;36.20;15.77;;;10.60;99.90;;;;;;5035268;28;20045;-76
2021/12/15 11:41:00;;;;;;;33.88;15.43;;;10.60;99.90;;;;;;5037186;28;20896;-76
2021/12/15 11:43:40;;;;;;;29.13;14.10;;;10.70;99.90;;;;;;5034261;28;20053;-77
2021/12/15 11:46:20;;;;;;;30.38;14.18;;;10.70;99.90;;;;;;5037344;28;20057;-76
2021/12/15 11:48:52;;;;;;;32.75;13.77;;;10.70;99.90;;;;;;5018988;28;20052;-77
2021/12/15 11:51:33;;;;;;;32.28;14.13;;;10.70;99.90;;;;;;5068957;28;20543;-77
2021/12/15 11:54:00;;;;;;;32.17;13.80;;;10.70;99.90;;;;;;5070855;28;20045;-76
2021/12/15 11:56:36;;;;;;;27.55;13.07;;;10.70;99.90;;;;;;5067162;28;20049;-75
2021/12/15 11:59:19;;;;;;;;;;;10.70;99.90;;;;;;5021228;28;20049;-75
2021/12/15 12:01:48;;;;;;;31.65;14.57;;;10.70;99.90;;;;;;5035679;28;19932;-75
2021/12/15 12:04:19;;;;;;;30.60;15.15;;;10.70;99.90;;;;;;5034634;28;20077;-76
2021/12/15 12:06:47;;;;;;;36.65;16.58;;;10.70;99.90;;;;;;5036116;28;20145;-77
2021/12/15 12:09:14;;;;;;;31.58;15.15;;;10.70;99.90;;;;;;5033960;28;20041;-76
2021/12/15 12:11:41;;;;;;;34.55;14.98;;;10.60;99.90;;;;;;5036434;28;20072;-76
2021/12/15 12:14:17;;;;;;;36.13;15.27;;;10.60;99.90;;;;;;5033952;28;20128;-75
2021/12/15 12:16:45;;;;;;;37.50;16.85;;;10.60;99.90;;;;;;5019985;28;20042;-77
2021/12/15 12:19:13;;;;;;;33.65;16.08;;;10.50;99.90;;;;;;5053462;28;20486;-76
2021/12/15 12:21:40;;;;;;;29.48;15.38;;;10.50;99.90;;;;;;5033584;28;20037;-74
2021/12/15 12:24:06;;;;;;;33.05;15.60;;;10.50;99.90;;;;;;5036595;28;20053;-77
2021/12/15 12:26:34;;;;;;;35.22;15.93;;;10.50;99.90;;;;;;5033754;28;20067;-76
2021/12/15 12:29:01;;;;;;;37.85;17.42;;;10.50;99.90;;;;;;5036759;28;20077;-76
2021/12/15 12:31:28;;;;;;;32.58;15.38;;;10.50;99.90;;;;;;5034075;28;20053;-77
2021/12/15 12:33:55;;;;;;;32.30;15.82;;;10.50;99.90;;;;;;5035473;28;20076;-77
2021/12/15 12:36:29;;;;;;;27.80;13.32;;;10.60;99.90;;;;;;5053195;28;20077;-76
2021/12/15 12:39:06;;;;;;;32.75;15.55;;;10.60;99.90;;;;;;5067721;28;20042;-77
2021/12/15 12:41:39;;;;;;;28.40;14.35;;;10.60;99.90;;;;;;5023061;28;20052;-78
2021/12/15 12:44:06;;;;;;;32.28;14.20;;;10.60;99.90;;;;;;5053818;28;20102;-77
2021/12/15 12:46:58;;;;;;;30.55;13.60;;;10.60;99.90;;;;;;5056458;28;20125;-76
2021/12/15 13:00:32;;;;;;;23.88;10.77;;;10.60;99.90;;;;;;5038063;28;20064;-77
2021/12/15 13:03:14;;;;;;;24.85;11.40;;;10.60;99.90;;;;;;5039387;28;20063;-77
2021/12/15 13:05:59;;;;;;;20.02;9.93;;;10.60;99.90;;;;;;5054348;28;20075;-76
2021/12/15 13:08:41;;;;;;;21.73;10.90;;;10.70;99.90;;;;;;5036779;28;20055;-79
2021/12/15 13:11:16;;;;;;;31.63;12.75;;;10.60;99.90;;;;;;5005694;28;20097;-77
2021/12/15 13:14:10;;;;;;;23.95;11.15;;;10.60;99.90;;;;;;5036249;28;20077;-77
2021/12/15 13:17:20;;;;;;;21.42;10.80;;;10.60;99.90;;;;;;5035757;28;20060;-77
2021/12/15 13:19:46;;;;;;;21.92;10.20;;;10.60;99.90;;;;;;5035125;28;20065;-77
2021/12/15 13:30:33;;;;;;;17.15;8.38;;;10.60;99.90;;;;;;5069754;28;20113;-77
2021/12/15 13:33:10;;;;;;;16.75;7.75;;;10.60;99.90;;;;;;5038921;28;20067;-77
2021/12/15 13:35:41;;;;;;;15.88;7.75;;;10.60;99.90;;;;;;5055359;28;20041;-77
2021/12/15 13:38:08;;;;;;;16.83;8.35;;;10.60;99.90;;;;;;5037942;28;20041;-77
2021/12/15 13:40:55;;;;;;;18.40;9.02;;;10.60;99.90;;;;;;5022375;28;20393;-78
2021/12/15 13:43:39;;;;;;;18.65;8.00;;;10.60;99.90;;;;;;5035866;28;20060;-78
2021/12/15 13:46:08;;;;;;;15.07;8.20;;;10.60;99.90;;;;;;5022827;28;20512;-78
2021/12/15 13:48:57;;;;;;;12.27;6.22;;;10.60;99.90;;;;;;5070281;28;20038;-76
2021/12/15 13:51:57;;;;;;;14.10;8.00;;;10.50;99.90;;;;;;5069093;28;20049;-77
2021/12/15 13:54:32;;;;;;;14.68;7.28;;;10.50;99.90;;;;;;5038826;28;20049;-80
2021/12/15 13:57:03;;;;;;;16.52;8.18;;;10.50;99.90;;;;;;5019874;28;20068;-75
2021/12/15 13:59:49;;;;;;;14.80;7.30;;;10.50;99.90;;;;;;5070747;28;20056;-79
2021/12/15 14:02:38;;;;;;;15.33;6.00;;;10.50;99.90;;;;;;5038132;28;20041;-76
2021/12/15 14:05:16;;;;;;;12.30;5.72;;;10.40;99.90;;;;;;5019328;28;20057;-77
2021/12/15 14:07:48;;;;;;;12.77;6.38;;;10.40;99.90;;;;;;5038475;28;20060;-77
2021/12/15 14:10:17;;;;;;;13.75;5.78;;;10.30;99.90;;;;;;5037009;28;20050;-77
2021/12/15 14:12:46;;;;;;;16.65;6.43;;;10.30;99.90;;;;;;5036566;28;20050;-77
2021/12/15 14:15:35;;;;;;;12.10;6.55;;;10.30;99.90;;;;;;5021935;28;20053;-76
2021/12/15 14:18:15;;;;;;;12.45;5.28;;;10.30;99.90;;;;;;5029933;28;20064;-77
2021/12/15 14:20:50;;;;;;;14.18;5.53;;;10.30;99.90;;;;;;5038664;28;20104;-78